createdAt,value
2018-12-13T00:00:59.318Z,76.16
2018-12-13T00:03:31.889Z,76.86
2018-12-13T00:06:04.898Z,76.12
2018-12-13T00:08:35.746Z,76.74
2018-12-13T00:11:06.600Z,75.95
2018-12-13T00:13:37.449Z,76.71
2018-12-13T00:16:08.841Z,75.79
2018-12-13T00:18:39.785Z,76.14
2018-12-13T00:21:10.768Z,75.94
2018-12-13T00:23:41.909Z,76.36
2018-12-13T00:26:12.798Z,76.75
2018-12-13T00:28:43.841Z,76.56
2018-12-13T00:31:14.699Z,76.85
2018-12-13T00:33:45.633Z,76.78
2018-12-13T00:36:17.581Z,77.22
2018-12-13T00:38:48.534Z,77.28
2018-12-13T00:41:19.471Z,76.52
2018-12-13T00:43:50.404Z,76.93
2018-12-13T00:46:21.341Z,77.04
2018-12-13T00:48:52.316Z,77.63
2018-12-13T00:51:23.225Z,76.64
2018-12-13T00:53:54.133Z,76.86
2018-12-13T00:56:25.006Z,76.83
2018-12-13T00:58:55.931Z,77.22
2018-12-13T01:01:27.086Z,77.37
2018-12-13T01:03:57.949Z,77.16
2018-12-13T01:06:29.653Z,76.80
2018-12-13T01:09:00.586Z,77.32
2018-12-13T01:11:32.278Z,77.13
2018-12-13T01:14:03.178Z,76.84
2018-12-13T01:16:34.029Z,76.74
2018-12-13T01:19:04.950Z,77.18
2018-12-13T01:21:35.805Z,76.57
2018-12-13T01:24:06.738Z,77.31
2018-12-13T01:26:37.614Z,77.15
2018-12-13T01:29:08.508Z,76.90
2018-12-13T01:31:39.353Z,76.37
2018-12-13T01:34:10.288Z,76.90
2018-12-13T01:36:41.208Z,76.14
2018-12-13T01:39:12.167Z,76.23
2018-12-13T01:41:43.175Z,76.28
2018-12-13T01:44:14.019Z,77.28
2018-12-13T01:46:45.081Z,76.78
2018-12-13T01:49:16.239Z,77.01
2018-12-13T01:51:47.157Z,76.83
2018-12-13T01:54:18.426Z,76.87
2018-12-13T01:56:49.320Z,77.39
2018-12-13T01:59:20.304Z,77.88
2018-12-13T02:01:51.511Z,77.57
2018-12-13T02:04:22.686Z,77.49
2018-12-13T02:06:58.730Z,78.09
2018-12-13T02:09:26.497Z,78.02
2018-12-13T02:11:57.470Z,78.03
2018-12-13T02:14:30.014Z,78.08
2018-12-13T02:17:00.934Z,78.37
2018-12-13T02:19:31.993Z,78.22
2018-12-13T02:22:03.319Z,78.51
2018-12-13T02:24:34.290Z,78.71
2018-12-13T02:27:06.518Z,79.01
2018-12-13T02:29:37.386Z,78.71
2018-12-13T02:32:08.318Z,78.88
2018-12-13T02:34:40.072Z,79.02
2018-12-13T02:37:11.010Z,78.87
2018-12-13T02:39:41.945Z,79.14
2018-12-13T02:42:13.715Z,78.87
2018-12-13T02:44:44.650Z,78.25
2018-12-13T02:47:15.597Z,78.46
2018-12-13T02:49:46.519Z,77.97
2018-12-13T02:52:17.729Z,78.18
2018-12-13T02:54:48.607Z,78.47
2018-12-13T02:57:19.528Z,78.46
2018-12-13T02:59:50.490Z,78.45
2018-12-13T03:02:21.410Z,78.69
2018-12-13T03:04:52.570Z,78.83
2018-12-13T03:07:23.479Z,78.80
2018-12-13T03:09:55.660Z,78.49
2018-12-13T03:12:26.483Z,78.39
2018-12-13T03:14:57.651Z,78.71
2018-12-13T03:17:28.558Z,78.38
2018-12-13T03:19:59.430Z,78.60
2018-12-13T03:22:30.541Z,79.16
2018-12-13T03:25:01.562Z,78.79
2018-12-13T03:27:32.738Z,78.93
2018-12-13T03:30:03.671Z,79.06
2018-12-13T03:32:34.838Z,79.10
2018-12-13T03:35:07.592Z,78.85
2018-12-13T03:37:39.510Z,79.30
2018-12-13T03:40:10.880Z,79.10
2018-12-13T03:42:41.747Z,79.03
2018-12-13T03:45:13.289Z,78.67
2018-12-13T03:47:44.247Z,79.04
2018-12-13T03:50:15.988Z,78.73
2018-12-13T03:52:46.925Z,79.05
2018-12-13T03:55:17.755Z,78.54
2018-12-13T03:57:48.606Z,78.35
2018-12-13T04:00:19.941Z,77.92
2018-12-13T04:02:50.898Z,77.98
2018-12-13T04:05:21.796Z,78.40
2018-12-13T04:07:52.779Z,77.91
2018-12-13T04:10:23.931Z,78.56
2018-12-13T04:12:54.862Z,78.78
2018-12-13T04:15:25.754Z,78.63
2018-12-13T04:17:57.342Z,78.91
2018-12-13T04:20:29.885Z,78.50
2018-12-13T04:23:00.758Z,78.42
2018-12-13T04:25:31.844Z,77.70
2018-12-13T04:28:02.747Z,77.84
2018-12-13T04:30:34.781Z,78.52
2018-12-13T04:33:05.767Z,77.95
2018-12-13T04:35:36.650Z,77.76
2018-12-13T04:38:07.842Z,77.29
2018-12-13T04:40:38.694Z,77.41
2018-12-13T04:43:09.585Z,78.12
2018-12-13T04:45:40.567Z,78.08
2018-12-13T04:48:11.446Z,77.50
2018-12-13T04:50:42.802Z,78.58
2018-12-13T04:53:13.771Z,77.74
2018-12-13T04:55:44.674Z,77.88
2018-12-13T04:58:15.614Z,77.69
2018-12-13T05:00:46.590Z,77.38
2018-12-13T05:03:17.475Z,77.78
2018-12-13T05:05:48.426Z,77.74
2018-12-13T05:08:19.353Z,77.17
2018-12-13T05:10:55.231Z,77.79
2018-12-13T05:13:26.145Z,77.25
2018-12-13T05:15:57.101Z,77.08
2018-12-13T05:18:28.074Z,77.62
2018-12-13T05:20:59.021Z,77.74
2018-12-13T05:23:29.906Z,77.54
2018-12-13T05:26:00.852Z,77.43
2018-12-13T05:28:32.198Z,77.99
2018-12-13T05:31:03.061Z,77.61
2018-12-13T05:33:34.300Z,77.70
2018-12-13T05:36:05.401Z,77.70
2018-12-13T05:38:36.282Z,77.56
2018-12-13T05:41:07.121Z,78.20
2018-12-13T05:43:38.023Z,78.09
2018-12-13T05:46:08.970Z,77.86
2018-12-13T05:48:40.226Z,78.04
2018-12-13T05:51:11.169Z,77.90
2018-12-13T05:53:42.082Z,77.25
2018-12-13T05:56:13.509Z,78.52
2018-12-13T05:58:44.382Z,79.32
2018-12-13T06:01:15.326Z,80.97
2018-12-13T06:03:46.312Z,84.79
2018-12-13T06:06:17.333Z,84.60
2018-12-13T06:08:48.755Z,86.74
2018-12-13T06:11:19.670Z,86.75
2018-12-13T06:13:56.948Z,86.06
2018-12-13T06:16:27.969Z,85.35
2018-12-13T06:18:59.232Z,84.98
2018-12-13T06:21:36.559Z,83.64
2018-12-13T06:24:03.289Z,83.59
2018-12-13T06:26:34.146Z,82.85
2018-12-13T06:29:05.565Z,82.27
2018-12-13T06:31:36.475Z,82.32
2018-12-13T06:34:07.946Z,82.34
2018-12-13T06:36:38.877Z,82.55
2018-12-13T06:39:10.552Z,81.63
2018-12-13T06:41:41.480Z,81.02
2018-12-13T06:44:12.398Z,80.59
2018-12-13T06:46:43.442Z,80.97
2018-12-13T06:49:14.393Z,79.24
2018-12-13T06:51:45.329Z,79.15
2018-12-13T06:54:16.361Z,79.26
2018-12-13T06:56:47.309Z,78.05
2018-12-13T06:59:18.230Z,77.66
2018-12-13T07:01:49.186Z,77.56
2018-12-13T07:04:20.109Z,77.95
2018-12-13T07:06:51.162Z,77.97
2018-12-13T07:09:22.001Z,77.45
2018-12-13T07:11:52.946Z,77.47
2018-12-13T07:14:23.839Z,77.08
2018-12-13T07:16:56.345Z,76.79
2018-12-13T07:19:27.281Z,77.25
2018-12-13T07:21:58.233Z,77.68
2018-12-13T07:24:29.256Z,77.18
2018-12-13T07:27:00.193Z,77.12
2018-12-13T07:29:32.173Z,76.70
2018-12-13T07:32:03.101Z,75.11
2018-12-13T07:34:34.121Z,74.88
2018-12-13T07:37:05.480Z,74.74
2018-12-13T07:39:36.441Z,74.85
2018-12-13T07:42:07.761Z,75.70
2018-12-13T07:44:38.750Z,75.33
2018-12-13T07:47:09.645Z,73.62
2018-12-13T07:49:40.589Z,74.25
2018-12-13T07:52:11.519Z,73.78
2018-12-13T07:54:42.669Z,74.22
2018-12-13T07:57:13.554Z,74.04
2018-12-13T07:59:44.429Z,73.65
2018-12-13T08:02:15.378Z,73.49
2018-12-13T08:04:46.322Z,73.90
2018-12-13T08:07:17.257Z,73.04
2018-12-13T08:09:48.113Z,72.90
2018-12-13T08:12:19.442Z,71.70
2018-12-13T08:14:50.287Z,71.23
2018-12-13T08:17:21.312Z,71.93
2018-12-13T08:19:54.087Z,70.05
2018-12-13T08:22:25.038Z,69.82
2018-12-13T08:24:55.882Z,69.60
2018-12-13T08:27:26.822Z,69.99
2018-12-13T08:29:57.660Z,68.96
2018-12-13T08:32:29.109Z,68.42
2018-12-13T08:35:00.018Z,68.57
2018-12-13T08:37:30.978Z,69.49
2018-12-13T08:40:02.018Z,69.91
2018-12-13T08:42:34.167Z,68.80
2018-12-13T08:45:06.434Z,68.88
2018-12-13T08:47:37.274Z,68.26
2018-12-13T08:50:09.302Z,69.30
2018-12-13T08:52:40.173Z,68.74
2018-12-13T08:55:11.126Z,69.22
2018-12-13T08:57:42.073Z,68.43
2018-12-13T09:00:13.418Z,69.26
2018-12-13T09:02:44.278Z,68.98
2018-12-13T09:05:15.199Z,69.80
2018-12-13T09:07:46.193Z,69.74
2018-12-13T09:10:17.051Z,70.08
2018-12-13T09:12:47.987Z,70.54
2018-12-13T09:15:19.840Z,70.79
2018-12-13T09:17:51.091Z,70.75
2018-12-13T09:20:22.121Z,70.82
2018-12-13T09:22:53.086Z,71.41
2018-12-13T09:25:24.221Z,71.94
2018-12-13T09:27:55.161Z,72.12
2018-12-13T09:30:26.086Z,72.37
2018-12-13T09:32:57.050Z,71.78
2018-12-13T09:35:27.897Z,72.16
2018-12-13T09:37:58.962Z,71.54
2018-12-13T09:40:29.834Z,71.11
2018-12-13T09:43:00.809Z,71.95
2018-12-13T09:45:31.724Z,71.29
2018-12-13T09:48:02.661Z,71.20
2018-12-13T09:50:33.579Z,71.38
2018-12-13T09:53:04.543Z,72.71
2018-12-13T09:55:35.394Z,71.80
2018-12-13T09:58:06.618Z,70.75
2018-12-13T10:00:37.577Z,69.95
2018-12-13T10:03:08.770Z,70.56
2018-12-13T10:05:39.645Z,70.24
2018-12-13T10:08:10.510Z,71.22
2018-12-13T10:10:41.428Z,70.83
2018-12-13T10:13:12.317Z,71.70
2018-12-13T10:15:43.588Z,70.93
2018-12-13T10:18:15.805Z,71.89
2018-12-13T10:20:46.944Z,71.20
2018-12-13T10:23:17.825Z,71.74
2018-12-13T10:25:49.069Z,72.88
2018-12-13T10:28:19.914Z,72.67
2018-12-13T10:30:50.868Z,72.92
2018-12-13T10:33:21.712Z,71.91
2018-12-13T10:35:52.574Z,71.72
2018-12-13T10:38:23.449Z,72.03
2018-12-13T10:40:54.542Z,71.23
2018-12-13T10:43:25.642Z,71.89
2018-12-13T10:45:57.078Z,71.05
2018-12-13T10:48:27.946Z,71.43
2018-12-13T10:50:58.778Z,70.38
2018-12-13T10:53:30.739Z,71.13
2018-12-13T10:56:01.746Z,70.29
2018-12-13T10:58:32.733Z,70.64
2018-12-13T11:01:08.886Z,70.61
2018-12-13T11:03:39.727Z,70.05
2018-12-13T11:06:10.642Z,69.82
2018-12-13T11:08:41.601Z,70.71
2018-12-13T11:11:12.509Z,70.30
2018-12-13T11:13:43.453Z,71.06
2018-12-13T11:16:14.491Z,70.74
2018-12-13T11:18:45.437Z,71.11
2018-12-13T11:21:17.471Z,71.93
2018-12-13T11:23:48.845Z,71.76
2018-12-13T11:26:19.894Z,71.18
2018-12-13T11:30:35.133Z,71.24
2018-12-13T11:33:06.315Z,71.90
2018-12-13T11:35:37.263Z,71.40
2018-12-13T11:38:09.356Z,72.14
2018-12-13T11:40:40.310Z,72.56
2018-12-13T11:43:11.431Z,71.99
2018-12-13T11:45:42.506Z,72.54
2018-12-13T11:48:13.401Z,72.15
2018-12-13T11:50:44.304Z,72.13
2018-12-13T11:53:15.270Z,72.13
2018-12-13T11:55:47.314Z,73.05
2018-12-13T11:58:18.840Z,73.88
2018-12-13T12:00:49.701Z,73.63
2018-12-13T12:03:20.666Z,73.00
2018-12-13T12:05:51.665Z,74.09
2018-12-13T12:08:23.656Z,72.45
2018-12-13T12:10:54.613Z,73.51
2018-12-13T12:13:25.521Z,72.60
2018-12-13T12:15:56.874Z,71.96
2018-12-13T12:18:28.033Z,73.10
2018-12-13T12:20:58.942Z,71.66
2018-12-13T12:23:29.901Z,71.98
2018-12-13T12:26:00.850Z,71.38
2018-12-13T12:28:31.762Z,71.89
2018-12-13T12:31:02.704Z,71.73
2018-12-13T12:33:33.634Z,70.87
2018-12-13T12:36:04.625Z,70.39
2018-12-13T12:38:35.838Z,70.74
2018-12-13T12:41:06.898Z,71.10
2018-12-13T12:43:38.091Z,71.26
2018-12-13T12:46:08.973Z,71.32
2018-12-13T12:48:39.846Z,71.07
2018-12-13T12:51:10.791Z,71.67
2018-12-13T12:53:41.662Z,70.56
2018-12-13T12:56:12.537Z,70.95
2018-12-13T12:58:43.434Z,71.34
2018-12-13T13:01:14.302Z,71.48
2018-12-13T13:03:45.141Z,71.97
2018-12-13T13:06:16.222Z,70.71
2018-12-13T13:08:47.309Z,70.57
2018-12-13T13:11:18.203Z,71.11
2018-12-13T13:13:49.593Z,70.19
2018-12-13T13:16:20.606Z,70.36
2018-12-13T13:18:51.570Z,70.46
2018-12-13T13:21:22.477Z,70.50
2018-12-13T13:23:53.645Z,69.96
2018-12-13T13:26:24.562Z,70.47
2018-12-13T13:28:55.518Z,70.39
2018-12-13T13:31:26.427Z,69.23
2018-12-13T13:33:57.410Z,70.21
2018-12-13T13:36:29.143Z,69.85
2018-12-13T13:39:00.089Z,70.40
2018-12-13T13:41:31.002Z,70.44
2018-12-13T13:44:01.974Z,69.76
2018-12-13T13:46:32.815Z,69.24
2018-12-13T13:49:03.787Z,69.21
2018-12-13T13:51:35.298Z,71.32
2018-12-13T13:54:06.423Z,69.67
2018-12-13T13:56:37.353Z,69.34
2018-12-13T13:59:08.718Z,69.80
2018-12-13T14:01:39.622Z,69.12
2018-12-13T14:06:46.762Z,69.67
2018-12-13T14:09:17.690Z,70.34
2018-12-13T14:11:48.630Z,69.65
2018-12-13T14:14:19.549Z,68.55
2018-12-13T14:16:50.622Z,68.73
2018-12-13T14:19:21.547Z,69.52
2018-12-13T14:21:53.468Z,68.42
2018-12-13T14:24:24.631Z,69.32
2018-12-13T14:26:55.890Z,68.86
2018-12-13T14:29:26.923Z,68.81
2018-12-13T14:31:58.136Z,68.87
2018-12-13T14:34:28.986Z,68.65
2018-12-13T14:37:00.234Z,68.09
2018-12-13T14:39:31.167Z,68.48
2018-12-13T14:42:05.243Z,68.63
2018-12-13T14:44:43.651Z,69.39
2018-12-13T14:47:14.600Z,68.10
2018-12-13T14:49:45.650Z,67.44
2018-12-13T14:52:16.657Z,68.08
2018-12-13T14:54:47.577Z,68.49
2018-12-13T14:57:18.722Z,68.27
2018-12-13T14:59:50.135Z,67.67
2018-12-13T15:02:21.206Z,67.00
2018-12-13T15:04:54.399Z,67.32
2018-12-13T15:07:25.339Z,67.16
2018-12-13T15:09:56.682Z,68.17
2018-12-13T15:12:27.607Z,67.77
2018-12-13T15:14:58.594Z,67.50
2018-12-13T15:17:29.482Z,68.28
2018-12-13T15:20:00.518Z,68.24
2018-12-13T15:22:31.440Z,67.75
2018-12-13T15:25:04.383Z,67.55
2018-12-13T15:27:35.569Z,68.58
2018-12-13T15:30:10.178Z,67.95
2018-12-13T15:32:41.017Z,67.65
2018-12-13T15:35:12.644Z,67.48
2018-12-13T15:37:43.737Z,68.78
2018-12-13T15:40:14.702Z,68.60
2018-12-13T15:42:45.582Z,68.29
2018-12-13T15:45:17.206Z,67.86
2018-12-13T15:47:48.134Z,68.08
2018-12-13T15:50:19.308Z,69.24
2018-12-13T15:52:52.614Z,68.62
2018-12-13T15:55:23.478Z,68.21
2018-12-13T15:57:55.057Z,68.86
2018-12-13T16:00:26.010Z,67.54
2018-12-13T16:02:57.360Z,67.72
2018-12-13T16:05:28.383Z,68.83
2018-12-13T16:07:59.408Z,67.67
2018-12-13T16:10:31.493Z,68.13
2018-12-13T16:13:02.736Z,67.97
2018-12-13T16:15:34.150Z,67.79
2018-12-13T16:18:05.522Z,68.02
2018-12-13T16:20:36.879Z,68.39
2018-12-13T16:23:07.746Z,67.19
2018-12-13T16:25:38.671Z,68.52
2018-12-13T16:28:09.714Z,68.36
2018-12-13T16:30:40.716Z,67.12
2018-12-13T16:33:12.818Z,67.97
2018-12-13T16:35:43.737Z,68.30
2018-12-13T16:38:14.723Z,67.26
2018-12-13T16:40:46.006Z,66.98
2018-12-13T16:43:17.273Z,66.63
2018-12-13T16:45:48.185Z,67.71
2018-12-13T16:48:19.128Z,66.66
2018-12-13T16:50:50.281Z,66.69
2018-12-13T16:53:21.249Z,68.02
2018-12-13T16:55:52.162Z,67.13
2018-12-13T16:58:23.037Z,67.52
2018-12-13T17:00:54.049Z,67.39
2018-12-13T17:03:38.662Z,66.54
2018-12-13T17:08:58.931Z,66.69
2018-12-13T17:11:29.832Z,67.58
2018-12-13T17:14:00.738Z,66.98
2018-12-13T17:16:31.610Z,66.75
2018-12-13T17:19:02.461Z,66.69
2018-12-13T17:21:33.343Z,67.55
2018-12-13T17:24:04.237Z,67.80
2018-12-13T17:26:35.126Z,67.70
2018-12-13T17:29:06.176Z,66.78
2018-12-13T17:31:37.014Z,66.83
2018-12-13T17:34:07.878Z,66.64
2018-12-13T17:36:40.042Z,66.68
2018-12-13T17:39:11.341Z,66.69
2018-12-13T17:41:42.212Z,67.39
2018-12-13T17:44:13.077Z,67.20
2018-12-13T17:46:43.985Z,66.86
2018-12-13T17:49:15.272Z,66.75
2018-12-13T17:51:46.305Z,66.78
2018-12-13T17:54:17.167Z,67.24
2018-12-13T17:56:49.438Z,66.95
2018-12-13T17:59:22.446Z,66.93
2018-12-13T18:01:53.433Z,67.39
2018-12-13T18:04:24.340Z,67.12
2018-12-13T18:06:55.218Z,66.64
2018-12-13T18:09:26.110Z,67.05
2018-12-13T18:11:57.134Z,67.38
2018-12-13T18:14:28.093Z,66.99
2018-12-13T18:17:00.994Z,66.50
2018-12-13T18:19:31.914Z,66.48
2018-12-13T18:22:02.941Z,67.46
2018-12-13T18:24:33.890Z,66.60
2018-12-13T18:27:04.813Z,66.80
2018-12-13T18:29:36.829Z,67.10
2018-12-13T18:32:07.946Z,66.62
2018-12-13T18:34:39.395Z,67.13
2018-12-13T18:37:10.373Z,67.00
2018-12-13T18:39:41.298Z,66.88
2018-12-13T18:42:12.314Z,66.64
2018-12-13T18:44:43.553Z,67.47
2018-12-13T18:47:14.565Z,67.71
2018-12-13T18:49:45.693Z,67.21
2018-12-13T18:52:16.822Z,66.65
2018-12-13T18:54:47.686Z,67.22
2018-12-13T18:57:19.058Z,66.46
2018-12-13T18:59:50.990Z,66.49
2018-12-13T19:02:23.196Z,67.23
2018-12-13T19:04:54.410Z,66.94
2018-12-13T19:07:25.885Z,66.94
2018-12-13T19:09:56.806Z,66.35
2018-12-13T19:12:28.567Z,67.09
2018-12-13T19:14:59.483Z,67.71
2018-12-13T19:17:30.383Z,67.59
2018-12-13T19:20:01.266Z,67.20
2018-12-13T19:22:33.256Z,66.55
2018-12-13T19:25:05.718Z,66.51
2018-12-13T19:27:37.897Z,67.08
2018-12-13T19:30:11.009Z,67.80
2018-12-13T19:32:41.927Z,67.07
2018-12-13T19:35:19.211Z,67.21
2018-12-13T19:37:45.750Z,67.45
2018-12-13T19:40:16.698Z,67.28
2018-12-13T19:42:47.726Z,66.73
2018-12-13T19:45:18.747Z,66.51
2018-12-13T19:47:50.430Z,66.31
2018-12-13T19:50:21.348Z,67.58
2018-12-13T19:52:52.707Z,67.37
2018-12-13T19:55:23.686Z,66.95
2018-12-13T19:57:54.690Z,66.90
2018-12-13T20:00:25.589Z,67.65
2018-12-13T20:02:56.970Z,67.82
2018-12-13T20:05:29.034Z,67.33
2018-12-13T20:08:00.306Z,66.64
2018-12-13T20:10:31.254Z,68.06
2018-12-13T20:13:02.142Z,67.43
2018-12-13T20:15:33.070Z,67.41
2018-12-13T20:18:03.958Z,67.58
2018-12-13T20:20:35.161Z,67.01
2018-12-13T20:23:06.090Z,67.46
2018-12-13T20:25:37.445Z,68.45
2018-12-13T20:28:08.470Z,67.61
2018-12-13T20:30:40.670Z,66.75
2018-12-13T20:33:11.687Z,67.88
2018-12-13T20:35:42.724Z,67.70
2018-12-13T20:38:14.874Z,66.69
2018-12-13T20:40:46.986Z,67.46
2018-12-13T20:43:18.725Z,67.29
2018-12-13T20:45:49.641Z,67.86
2018-12-13T20:48:20.521Z,67.53
2018-12-13T20:50:51.431Z,66.96
2018-12-13T20:53:22.394Z,67.28
2018-12-13T20:55:53.319Z,67.25
2018-12-13T20:58:24.279Z,66.81
2018-12-13T21:00:55.196Z,66.93
2018-12-13T21:03:26.035Z,67.99
2018-12-13T21:05:57.094Z,67.46
2018-12-13T21:08:28.765Z,68.49
2018-12-13T21:10:59.689Z,67.61
2018-12-13T21:13:30.550Z,68.35
2018-12-13T21:16:02.331Z,67.95
2018-12-13T21:18:34.023Z,67.79
2018-12-13T21:21:05.333Z,67.80
2018-12-13T21:23:36.198Z,67.58
2018-12-13T21:26:07.054Z,68.19
2018-12-13T21:28:38.879Z,67.75
2018-12-13T21:31:09.749Z,66.49
2018-12-13T21:33:40.910Z,67.85
2018-12-13T21:36:11.787Z,67.76
2018-12-13T21:38:42.700Z,67.88
2018-12-13T21:41:13.817Z,67.67
2018-12-13T21:43:45.058Z,68.30
2018-12-13T21:46:15.962Z,67.90
2018-12-13T21:48:46.855Z,67.43
2018-12-13T21:51:18.239Z,68.37
2018-12-13T21:53:49.082Z,67.99
2018-12-13T21:56:19.957Z,67.83
2018-12-13T21:58:50.827Z,67.99
2018-12-13T22:01:21.744Z,68.07
2018-12-13T22:03:52.713Z,68.12
2018-12-13T22:06:23.706Z,67.74
2018-12-13T22:08:54.605Z,67.75
2018-12-13T22:11:25.499Z,68.04
2018-12-13T22:13:56.371Z,68.22
2018-12-13T22:16:28.378Z,68.59
2018-12-13T22:18:59.263Z,67.89
2018-12-13T22:21:30.415Z,68.40
2018-12-13T22:24:01.365Z,67.74
2018-12-13T22:26:33.206Z,67.69
2018-12-13T22:29:04.277Z,68.16
2018-12-13T22:31:35.507Z,68.59
2018-12-13T22:34:06.405Z,67.63
2018-12-13T22:36:38.228Z,68.47
2018-12-13T22:39:09.974Z,67.95
2018-12-13T22:41:40.919Z,68.01
2018-12-13T22:44:12.636Z,67.38
2018-12-13T22:46:43.587Z,67.58
2018-12-13T22:49:14.423Z,68.53
2018-12-13T22:51:45.353Z,68.16
2018-12-13T22:54:16.421Z,67.68
2018-12-13T22:56:47.279Z,67.80
2018-12-13T22:59:19.610Z,67.88
2018-12-13T23:01:50.525Z,68.61
2018-12-13T23:04:22.622Z,68.37
2018-12-13T23:06:53.526Z,68.85
2018-12-13T23:09:25.711Z,68.27
2018-12-13T23:11:58.066Z,67.98
2018-12-13T23:14:32.902Z,68.73
2018-12-13T23:17:03.837Z,68.17
2018-12-13T23:19:36.028Z,68.88
2018-12-13T23:22:07.052Z,68.23
2018-12-13T23:24:38.215Z,68.58
2018-12-13T23:27:12.340Z,67.48
2018-12-13T23:29:43.948Z,67.68
2018-12-13T23:32:15.848Z,67.98
2018-12-13T23:34:46.861Z,68.32
2018-12-13T23:37:19.037Z,67.50
2018-12-13T23:39:49.975Z,68.01
2018-12-13T23:42:21.901Z,66.93
2018-12-13T23:44:52.837Z,66.06
2018-12-13T23:47:24.090Z,65.97
2018-12-13T23:49:56.056Z,65.93
2018-12-13T23:52:27.010Z,66.50
2018-12-13T23:54:58.074Z,66.64
2018-12-13T23:57:29.507Z,67.10
